Time,TemperatureF,DewpointF,PressureIn,WindDirection,WindDirectionDegrees,WindSpeedMPH,WindSpeedGustMPH,Humidity,HourlyPrecipIn,Conditions,Clouds,dailyrainin,SolarRadiationWatts/m^2,SoftwareType,DateUTC
2013-05-26 00:01:00,47.0,38.0,30.02,WNW,288,29.0,37.0,72,0.00,,,0.00,0.000000,,2013-05-26 07:01:00,
2013-05-26 00:11:00,47.0,38.0,30.02,WNW,288,29.0,37.0,72,0.00,,,0.00,0.000000,,2013-05-26 07:11:00,
2013-05-26 00:32:00,44.0,38.0,30.03,WNW,290,28.0,43.0,78,0.00,,,-99.99,0.000000,,2013-05-26 07:32:00,
2013-05-26 00:42:00,44.0,38.0,30.03,WNW,290,28.0,43.0,78,0.00,,,-99.99,0.000000,,2013-05-26 07:42:00,
2013-05-26 00:52:00,44.0,38.0,30.03,WNW,290,28.0,43.0,78,0.00,,,-99.99,0.000000,,2013-05-26 07:52:00,
2013-05-26 01:01:00,44.0,38.0,30.03,WNW,290,28.0,43.0,78,0.00,,,-99.99,0.000000,,2013-05-26 08:01:00,
2013-05-26 01:11:00,44.0,38.0,30.03,WNW,290,28.0,43.0,78,0.00,,,-99.99,0.000000,,2013-05-26 08:11:00,
2013-05-26 01:32:00,44.0,38.0,30.01,WNW,293,27.0,-999.0,79,0.00,,,0.00,0.000000,,2013-05-26 08:32:00,
2013-05-26 01:42:00,44.0,38.0,30.01,WNW,293,27.0,-999.0,79,0.00,,,0.00,0.000000,,2013-05-26 08:42:00,
2013-05-26 01:53:00,44.0,38.0,30.01,WNW,293,27.0,-999.0,79,0.00,,,0.00,0.000000,,2013-05-26 08:53:00,
2013-05-26 02:01:00,44.0,38.0,30.01,WNW,293,27.0,-999.0,79,0.00,,,0.00,0.000000,,2013-05-26 09:01:00,
2013-05-26 02:11:00,44.0,38.0,30.01,WNW,293,27.0,-999.0,79,0.00,,,0.00,0.000000,,2013-05-26 09:11:00,
2013-05-26 02:34:00,44.0,42.0,30.01,WNW,294,31.0,52.0,92,0.00,,,0.00,0.000000,,2013-05-26 09:34:00,
2013-05-26 02:43:00,44.0,42.0,30.01,WNW,294,31.0,52.0,92,0.00,,,0.00,0.000000,,2013-05-26 09:43:00,
2013-05-26 02:53:00,44.0,42.0,30.01,WNW,294,31.0,52.0,92,0.00,,,0.00,0.000000,,2013-05-26 09:53:00,
2013-05-26 03:02:00,44.0,42.0,30.01,WNW,294,31.0,52.0,92,0.00,,,0.00,0.000000,,2013-05-26 10:02:00,
2013-05-26 03:12:00,44.0,42.0,30.01,WNW,294,31.0,52.0,92,0.00,,,0.00,0.000000,,2013-05-26 10:12:00,
2013-05-26 03:33:00,42.0,40.0,30.02,WNW,291,35.0,-999.0,93,0.00,,,-99.99,0.000000,,2013-05-26 10:33:00,
2013-05-26 03:42:00,42.0,40.0,30.02,WNW,291,35.0,-999.0,93,0.00,,,-99.99,0.000000,,2013-05-26 10:42:00,
2013-05-26 03:52:00,42.0,40.0,30.02,WNW,291,35.0,-999.0,93,0.00,,,-99.99,0.000000,,2013-05-26 10:52:00,
2013-05-26 04:02:00,42.0,40.0,30.02,WNW,291,35.0,-999.0,93,0.00,,,-99.99,0.000000,,2013-05-26 11:02:00,
2013-05-26 04:11:00,42.0,40.0,30.02,WNW,291,35.0,-999.0,93,0.00,,,-99.99,0.000000,,2013-05-26 11:11:00,
2013-05-26 04:32:00,43.0,42.0,30.02,WNW,295,32.0,-999.0,95,0.00,,,0.00,0.000000,,2013-05-26 11:32:00,
2013-05-26 04:42:00,43.0,42.0,30.02,WNW,295,32.0,-999.0,95,0.00,,,0.00,0.000000,,2013-05-26 11:42:00,
2013-05-26 04:52:00,43.0,42.0,30.02,WNW,295,32.0,-999.0,95,0.00,,,0.00,0.000000,,2013-05-26 11:52:00,
2013-05-26 05:01:00,43.0,42.0,30.02,WNW,295,32.0,-999.0,95,0.00,,,0.00,0.000000,,2013-05-26 12:01:00,
2013-05-26 05:11:00,43.0,42.0,30.02,WNW,295,32.0,-999.0,95,0.00,,,0.00,0.000000,,2013-05-26 12:11:00,
2013-05-26 05:32:00,42.0,41.0,30.02,WNW,299,32.0,-999.0,97,0.00,,,0.00,0.000000,,2013-05-26 12:32:00,
2013-05-26 05:42:00,42.0,41.0,30.02,WNW,299,32.0,-999.0,97,0.00,,,0.00,0.000000,,2013-05-26 12:42:00,
2013-05-26 05:52:00,42.0,41.0,30.02,WNW,299,32.0,-999.0,97,0.00,,,0.00,0.000000,,2013-05-26 12:52:00,
2013-05-26 06:02:00,42.0,41.0,30.02,WNW,299,32.0,-999.0,97,0.00,,,0.00,0.000000,,2013-05-26 13:02:00,
2013-05-26 06:11:00,42.0,41.0,30.02,WNW,299,32.0,-999.0,97,0.00,,,0.00,0.000000,,2013-05-26 13:11:00,
2013-05-26 06:32:00,42.0,41.0,30.03,WNW,296,22.0,-999.0,98,0.00,,,0.00,0.000000,,2013-05-26 13:32:00,
2013-05-26 06:42:00,42.0,41.0,30.03,WNW,296,22.0,-999.0,98,0.00,,,0.00,0.000000,,2013-05-26 13:42:00,
2013-05-26 06:52:00,42.0,41.0,30.03,WNW,296,22.0,-999.0,98,0.00,,,0.00,0.000000,,2013-05-26 13:52:00,
2013-05-26 07:01:00,42.0,41.0,30.03,WNW,296,22.0,-999.0,98,0.00,,,0.00,0.000000,,2013-05-26 14:01:00,
2013-05-26 07:11:00,42.0,41.0,30.03,WNW,296,22.0,-999.0,98,0.00,,,0.00,0.000000,,2013-05-26 14:11:00,
2013-05-26 07:32:00,45.0,43.0,30.03,WNW,296,29.0,47.0,91,0.00,,,-99.99,2.000000,,2013-05-26 14:32:00,
2013-05-26 07:42:00,45.0,43.0,30.03,WNW,296,29.0,47.0,91,0.00,,,-99.99,2.000000,,2013-05-26 14:42:00,
2013-05-26 07:52:00,45.0,43.0,30.03,WNW,296,29.0,47.0,91,0.00,,,-99.99,2.000000,,2013-05-26 14:52:00,
2013-05-26 08:01:00,45.0,43.0,30.03,WNW,296,29.0,47.0,91,0.00,,,-99.99,2.000000,,2013-05-26 15:01:00,
2013-05-26 08:11:00,45.0,43.0,30.03,WNW,296,29.0,47.0,91,0.00,,,-99.99,2.000000,,2013-05-26 15:11:00,
2013-05-26 08:33:00,43.0,42.0,30.04,WNW,300,27.0,-999.0,96,0.00,,,0.00,66.000000,,2013-05-26 15:33:00,
2013-05-26 08:43:00,43.0,42.0,30.04,WNW,300,27.0,-999.0,96,0.00,,,0.00,66.000000,,2013-05-26 15:43:00,
2013-05-26 08:53:00,43.0,42.0,30.04,WNW,300,27.0,-999.0,96,0.00,,,0.00,66.000000,,2013-05-26 15:53:00,
2013-05-26 09:03:00,43.0,42.0,30.04,WNW,300,27.0,-999.0,96,0.00,,,0.00,66.000000,,2013-05-26 16:03:00,
2013-05-26 09:12:00,43.0,42.0,30.04,WNW,300,27.0,-999.0,96,0.00,,,0.00,66.000000,,2013-05-26 16:12:00,
2013-05-26 09:33:00,45.0,40.0,30.07,WNW,299,29.0,-999.0,84,0.00,,,0.00,253.000000,,2013-05-26 16:33:00,
2013-05-26 09:42:00,45.0,40.0,30.07,WNW,299,29.0,-999.0,84,0.00,,,0.00,253.000000,,2013-05-26 16:42:00,
2013-05-26 09:53:00,45.0,40.0,30.07,WNW,299,29.0,-999.0,84,0.00,,,0.00,253.000000,,2013-05-26 16:53:00,
2013-05-26 10:02:00,45.0,40.0,30.07,WNW,299,29.0,-999.0,84,0.00,,,0.00,253.000000,,2013-05-26 17:02:00,
2013-05-26 10:11:00,45.0,40.0,30.07,WNW,299,29.0,-999.0,84,0.00,,,0.00,253.000000,,2013-05-26 17:11:00,
2013-05-26 10:32:00,47.0,43.0,30.08,NE,56,20.0,-999.0,85,0.00,,,0.00,388.000000,,2013-05-26 17:32:00,
2013-05-26 10:42:00,47.0,43.0,30.08,NE,56,20.0,-999.0,85,0.00,,,0.00,388.000000,,2013-05-26 17:42:00,
2013-05-26 10:52:00,47.0,43.0,30.08,NE,56,20.0,-999.0,85,0.00,,,0.00,388.000000,,2013-05-26 17:52:00,
2013-05-26 11:01:00,47.0,43.0,30.08,NE,56,20.0,-999.0,85,0.00,,,0.00,388.000000,,2013-05-26 18:01:00,
2013-05-26 11:12:00,47.0,43.0,30.08,NE,56,20.0,-999.0,85,0.00,,,0.00,388.000000,,2013-05-26 18:12:00,
2013-05-26 11:32:00,50.0,44.0,30.10,SSW,205,23.0,-999.0,81,0.00,,,0.00,676.000000,,2013-05-26 18:32:00,
2013-05-26 11:42:00,50.0,44.0,30.10,SSW,205,23.0,-999.0,81,0.00,,,0.00,676.000000,,2013-05-26 18:42:00,
2013-05-26 11:52:00,50.0,44.0,30.10,SSW,205,23.0,-999.0,81,0.00,,,0.00,676.000000,,2013-05-26 18:52:00,
2013-05-26 12:01:00,50.0,44.0,30.10,SSW,205,23.0,-999.0,81,0.00,,,0.00,676.000000,,2013-05-26 19:01:00,
2013-05-26 12:11:00,50.0,44.0,30.10,SSW,205,23.0,-999.0,81,0.00,,,0.00,676.000000,,2013-05-26 19:11:00,
2013-05-26 12:32:00,50.0,43.0,30.12,WNW,301,15.0,-999.0,78,0.00,,,0.00,828.000000,,2013-05-26 19:32:00,
2013-05-26 12:42:00,50.0,43.0,30.12,WNW,301,15.0,-999.0,78,0.00,,,0.00,828.000000,,2013-05-26 19:42:00,
2013-05-26 12:52:00,50.0,43.0,30.12,WNW,301,15.0,-999.0,78,0.00,,,0.00,828.000000,,2013-05-26 19:52:00,
2013-05-26 13:02:00,50.0,43.0,30.12,WNW,301,15.0,-999.0,78,0.00,,,0.00,828.000000,,2013-05-26 20:02:00,
2013-05-26 13:11:00,50.0,43.0,30.12,WNW,301,15.0,-999.0,78,0.00,,,0.00,828.000000,,2013-05-26 20:11:00,
2013-05-26 13:32:00,51.0,43.0,30.11,ENE,69,13.0,45.0,73,0.00,,,0.00,870.000000,,2013-05-26 20:32:00,
2013-05-26 13:42:00,51.0,43.0,30.11,ENE,69,13.0,45.0,73,0.00,,,0.00,870.000000,,2013-05-26 20:42:00,
2013-05-26 13:52:00,51.0,43.0,30.11,ENE,69,13.0,45.0,73,0.00,,,0.00,870.000000,,2013-05-26 20:52:00,
2013-05-26 14:01:00,51.0,43.0,30.11,ENE,69,13.0,45.0,73,0.00,,,0.00,870.000000,,2013-05-26 21:01:00,
2013-05-26 14:11:00,51.0,43.0,30.11,ENE,69,13.0,45.0,73,0.00,,,0.00,870.000000,,2013-05-26 21:11:00,
2013-05-26 14:43:00,52.0,45.0,30.10,SE,130,14.0,42.0,76,0.00,,,0.00,966.000000,,2013-05-26 21:43:00,
2013-05-26 14:53:00,52.0,45.0,30.10,SE,130,14.0,42.0,76,0.00,,,0.00,966.000000,,2013-05-26 21:53:00,
2013-05-26 15:02:00,52.0,45.0,30.10,SE,130,14.0,42.0,76,0.00,,,0.00,966.000000,,2013-05-26 22:02:00,
2013-05-26 15:12:00,52.0,45.0,30.10,SE,130,14.0,42.0,76,0.00,,,0.00,966.000000,,2013-05-26 22:12:00,
2013-05-26 15:33:00,52.0,43.0,30.11,WNW,303,21.0,39.0,70,0.00,,,0.00,984.000000,,2013-05-26 22:33:00,
2013-05-26 15:42:00,52.0,43.0,30.11,WNW,303,21.0,39.0,70,0.00,,,0.00,984.000000,,2013-05-26 22:42:00,
2013-05-26 15:53:00,52.0,43.0,30.11,WNW,303,21.0,39.0,70,0.00,,,0.00,984.000000,,2013-05-26 22:53:00,
2013-05-26 16:02:00,52.0,43.0,30.11,WNW,303,21.0,39.0,70,0.00,,,0.00,984.000000,,2013-05-26 23:02:00,
2013-05-26 16:11:00,52.0,43.0,30.11,WNW,303,21.0,39.0,70,0.00,,,0.00,984.000000,,2013-05-26 23:11:00,
2013-05-26 16:32:00,52.0,44.0,30.10,North,9,17.0,-999.0,74,0.00,,,0.00,1012.000000,,2013-05-26 23:32:00,
2013-05-26 16:43:00,52.0,44.0,30.10,North,9,17.0,-999.0,74,0.00,,,0.00,1012.000000,,2013-05-26 23:43:00,
2013-05-26 16:52:00,52.0,44.0,30.10,North,9,17.0,-999.0,74,0.00,,,0.00,1012.000000,,2013-05-26 23:52:00,
2013-05-26 17:02:00,52.0,44.0,30.10,North,9,17.0,-999.0,74,0.00,,,0.00,1012.000000,,2013-05-27 00:02:00,
2013-05-26 17:11:00,52.0,44.0,30.10,North,9,17.0,-999.0,74,0.00,,,0.00,1012.000000,,2013-05-27 00:11:00,
2013-05-26 18:32:00,50.0,43.0,30.09,West,281,16.0,38.0,78,-99.99,,,0.00,471.000000,,2013-05-27 01:32:00,
2013-05-26 18:42:00,50.0,43.0,30.09,West,281,16.0,38.0,78,-99.99,,,0.00,471.000000,,2013-05-27 01:42:00,
2013-05-26 18:52:00,50.0,43.0,30.09,West,281,16.0,38.0,78,-99.99,,,0.00,471.000000,,2013-05-27 01:52:00,
2013-05-26 19:01:00,50.0,43.0,30.09,West,281,16.0,38.0,78,-99.99,,,0.00,471.000000,,2013-05-27 02:01:00,
2013-05-26 19:11:00,50.0,43.0,30.09,West,281,16.0,38.0,78,-99.99,,,0.00,471.000000,,2013-05-27 02:11:00,
2013-05-26 19:32:00,47.0,38.0,30.08,West,280,19.0,35.0,71,0.00,,,0.00,432.000000,,2013-05-27 02:32:00,
2013-05-26 19:43:00,47.0,38.0,30.08,West,280,19.0,35.0,71,0.00,,,0.00,432.000000,,2013-05-27 02:43:00,
2013-05-26 19:52:00,47.0,38.0,30.08,West,280,19.0,35.0,71,0.00,,,0.00,432.000000,,2013-05-27 02:52:00,
2013-05-26 20:02:00,47.0,38.0,30.08,West,280,19.0,35.0,71,0.00,,,0.00,432.000000,,2013-05-27 03:02:00,
2013-05-26 20:11:00,47.0,38.0,30.08,West,280,19.0,35.0,71,0.00,,,0.00,432.000000,,2013-05-27 03:11:00,
2013-05-26 20:33:00,47.0,35.0,30.09,West,281,22.0,36.0,64,0.00,,,0.00,315.000000,,2013-05-27 03:33:00,
2013-05-26 20:43:00,47.0,35.0,30.09,West,281,22.0,36.0,64,0.00,,,0.00,315.000000,,2013-05-27 03:43:00,
2013-05-26 20:53:00,47.0,35.0,30.09,West,281,22.0,36.0,64,0.00,,,0.00,315.000000,,2013-05-27 03:53:00,
2013-05-26 21:02:00,47.0,35.0,30.09,West,281,22.0,36.0,64,0.00,,,0.00,315.000000,,2013-05-27 04:02:00,
2013-05-26 21:12:00,47.0,35.0,30.09,West,281,22.0,36.0,64,0.00,,,0.00,315.000000,,2013-05-27 04:12:00,
2013-05-26 21:33:00,46.0,30.0,30.10,WNW,283,25.0,-999.0,53,0.00,,,0.00,112.000000,,2013-05-27 04:33:00,
2013-05-26 21:43:00,46.0,30.0,30.10,WNW,283,25.0,-999.0,53,0.00,,,0.00,112.000000,,2013-05-27 04:43:00,
2013-05-26 22:32:00,46.0,33.0,30.11,West,277,26.0,36.0,61,0.00,,,0.00,4.000000,,2013-05-27 05:32:00,
2013-05-26 22:42:00,46.0,33.0,30.11,West,277,26.0,36.0,61,0.00,,,0.00,4.000000,,2013-05-27 05:42:00,
2013-05-26 22:52:00,46.0,33.0,30.11,West,277,26.0,36.0,61,0.00,,,0.00,4.000000,,2013-05-27 05:52:00,
2013-05-26 23:01:00,46.0,33.0,30.11,West,277,26.0,36.0,61,0.00,,,0.00,4.000000,,2013-05-27 06:01:00,
2013-05-26 23:11:00,46.0,33.0,30.11,West,277,26.0,36.0,61,0.00,,,0.00,4.000000,,2013-05-27 06:11:00,
2013-05-26 23:32:00,47.0,20.0,30.11,West,279,26.0,39.0,34,0.00,,,0.00,0.000000,,2013-05-27 06:32:00,